createdAt,value
2023-09-04T00:01:06.183Z,9.91
2023-09-04T00:03:33.058Z,9.92
2023-09-04T00:05:59.901Z,9.93
2023-09-04T00:08:26.853Z,9.91
2023-09-04T00:10:53.997Z,9.89
2023-09-04T00:13:20.652Z,9.87
2023-09-04T00:15:47.393Z,9.85
2023-09-04T00:18:14.497Z,9.82
2023-09-04T00:20:41.339Z,9.81
2023-09-04T00:23:08.528Z,9.78
2023-09-04T00:25:35.409Z,9.74
2023-09-04T00:28:02.162Z,9.68
2023-09-04T00:30:29.075Z,9.66
2023-09-04T00:32:56.012Z,9.61
2023-09-04T00:35:23.705Z,9.62
2023-09-04T00:37:50.975Z,9.63
2023-09-04T00:40:17.889Z,9.63
2023-09-04T00:42:44.640Z,9.63
2023-09-04T00:45:11.890Z,9.61
2023-09-04T00:47:46.373Z,9.57
2023-09-04T00:50:18.329Z,9.57
2023-09-04T00:52:45.445Z,9.56
2023-09-04T00:55:12.712Z,9.54
2023-09-04T00:57:42.990Z,9.55
2023-09-04T01:00:10.757Z,9.58
2023-09-04T01:02:42.282Z,9.62
2023-09-04T01:05:09.756Z,9.68
2023-09-04T01:07:36.713Z,9.74
2023-09-04T01:10:04.181Z,9.75
2023-09-04T01:12:51.313Z,9.75
2023-09-04T01:15:18.370Z,9.76
2023-09-04T01:17:46.869Z,9.76
2023-09-04T01:20:23.543Z,9.74
2023-09-04T01:22:50.210Z,9.70
2023-09-04T01:25:17.256Z,9.67
2023-09-04T01:28:05.203Z,9.63
2023-09-04T01:31:07.395Z,9.61
2023-09-04T01:33:40.804Z,9.57
2023-09-04T01:36:11.415Z,9.53
2023-09-04T01:38:39.115Z,9.47
2023-09-04T01:41:09.744Z,9.44
2023-09-04T01:43:36.606Z,9.43
2023-09-04T01:46:03.428Z,9.42
2023-09-04T01:48:30.066Z,9.42
2023-09-04T01:50:56.780Z,9.42
2023-09-04T01:53:24.072Z,9.42
2023-09-04T01:55:50.798Z,9.41
2023-09-04T01:58:17.445Z,9.38
2023-09-04T02:00:44.088Z,9.33
2023-09-04T02:03:10.782Z,9.31
2023-09-04T02:05:40.696Z,9.30
2023-09-04T02:08:07.721Z,9.32
2023-09-04T02:10:35.899Z,9.28
2023-09-04T02:13:03.812Z,9.27
2023-09-04T02:15:31.970Z,9.28
2023-09-04T02:17:58.743Z,9.31
2023-09-04T02:20:25.472Z,9.34
2023-09-04T02:22:52.279Z,9.35
2023-09-04T02:25:18.973Z,9.34
2023-09-04T02:27:45.747Z,9.31
2023-09-04T02:30:12.886Z,9.30
2023-09-04T02:32:39.665Z,9.30
2023-09-04T02:35:07.092Z,9.33
2023-09-04T02:37:33.757Z,9.38
2023-09-04T02:40:01.012Z,9.45
2023-09-04T02:42:30.734Z,9.51
2023-09-04T02:44:57.394Z,9.55
2023-09-04T02:47:24.154Z,9.60
2023-09-04T02:49:50.898Z,9.65
2023-09-04T02:52:17.527Z,9.69
2023-09-04T02:54:44.607Z,9.73
2023-09-04T02:57:11.569Z,9.77
2023-09-04T02:59:38.452Z,9.81
2023-09-04T03:02:05.411Z,9.83
2023-09-04T03:04:32.945Z,9.85
2023-09-04T03:06:59.696Z,9.87
2023-09-04T03:09:26.962Z,9.89
2023-09-04T03:11:53.610Z,9.92
2023-09-04T03:14:20.458Z,9.93
2023-09-04T03:16:47.252Z,9.94
2023-09-04T03:19:13.861Z,9.95
2023-09-04T03:21:40.707Z,9.96
2023-09-04T03:24:07.904Z,9.97
2023-09-04T03:26:34.623Z,9.98
2023-09-04T03:29:01.575Z,9.99
2023-09-04T03:31:28.574Z,10.00
2023-09-04T03:33:55.281Z,9.99
2023-09-04T03:36:21.843Z,9.97
2023-09-04T03:38:48.578Z,9.93
2023-09-04T03:41:15.343Z,9.91
2023-09-04T03:43:42.117Z,9.87
2023-09-04T03:46:13.411Z,9.83
2023-09-04T03:48:40.386Z,9.79
2023-09-04T03:51:07.156Z,9.78
2023-09-04T03:53:33.905Z,9.75
2023-09-04T03:56:04.940Z,9.71
2023-09-04T03:58:31.824Z,9.67
2023-09-04T04:00:59.136Z,9.64
2023-09-04T04:03:26.161Z,9.64
2023-09-04T04:05:53.089Z,9.63
2023-09-04T04:08:20.046Z,9.63
2023-09-04T04:10:46.823Z,9.64
2023-09-04T04:13:13.856Z,9.64
2023-09-04T04:15:40.620Z,9.64
2023-09-04T04:18:10.104Z,9.70
2023-09-04T04:20:37.287Z,9.74
2023-09-04T04:23:05.331Z,9.80
2023-09-04T04:25:32.219Z,9.85
2023-09-04T04:27:59.189Z,9.88
2023-09-04T04:30:25.934Z,9.90
2023-09-04T04:32:52.632Z,9.94
2023-09-04T04:35:19.548Z,10.01
2023-09-04T04:37:46.480Z,10.04
2023-09-04T04:40:13.243Z,10.11
2023-09-04T04:42:41.637Z,10.14
2023-09-04T04:45:09.005Z,10.23
2023-09-04T04:47:35.686Z,10.28
2023-09-04T04:50:02.833Z,10.35
2023-09-04T04:52:29.680Z,10.41
2023-09-04T04:54:56.527Z,10.45
2023-09-04T04:57:24.540Z,10.49
2023-09-04T04:59:51.251Z,10.50
2023-09-04T05:02:18.357Z,10.52
2023-09-04T05:04:45.786Z,10.55
2023-09-04T05:07:13.453Z,10.60
2023-09-04T05:09:40.820Z,10.69
2023-09-04T05:12:08.699Z,10.75
2023-09-04T05:14:36.058Z,10.80
2023-09-04T05:17:02.697Z,10.86
2023-09-04T05:19:30.700Z,10.95
2023-09-04T05:21:57.560Z,11.06
2023-09-04T05:24:24.373Z,11.15
2023-09-04T05:26:51.239Z,11.22
2023-09-04T05:29:18.053Z,11.27
2023-09-04T05:31:44.954Z,11.42
2023-09-04T05:34:11.813Z,11.63
2023-09-04T05:36:38.375Z,11.82
2023-09-04T05:39:05.706Z,12.01
2023-09-04T05:41:32.352Z,12.18
2023-09-04T05:43:59.184Z,12.34
2023-09-04T05:46:25.884Z,12.43
2023-09-04T05:48:52.727Z,12.50
2023-09-04T05:51:19.463Z,12.57
2023-09-04T05:53:46.223Z,12.62
2023-09-04T05:56:13.153Z,12.86
2023-09-04T05:58:48.299Z,13.30
2023-09-04T06:01:15.604Z,13.81
2023-09-04T06:03:43.787Z,14.12
2023-09-04T06:06:11.319Z,14.69
2023-09-04T06:08:38.887Z,15.31
2023-09-04T06:11:06.012Z,15.87
2023-09-04T06:13:33.201Z,16.30
2023-09-04T06:16:00.975Z,16.83
2023-09-04T06:18:29.377Z,17.26
2023-09-04T06:20:56.213Z,17.56
2023-09-04T06:23:23.055Z,18.02
2023-09-04T06:25:50.116Z,18.46
2023-09-04T06:28:17.392Z,18.82
2023-09-04T06:30:44.164Z,18.86
2023-09-04T06:33:11.070Z,19.05
2023-09-04T06:35:37.925Z,19.25
2023-09-04T06:38:04.699Z,19.23
2023-09-04T06:40:31.434Z,19.06
2023-09-04T06:42:58.017Z,19.23
2023-09-04T06:45:24.668Z,19.57
2023-09-04T06:47:51.303Z,19.59
2023-09-04T06:50:18.155Z,19.61
2023-09-04T06:52:44.868Z,19.90
2023-09-04T06:55:11.531Z,20.03
2023-09-04T06:57:38.279Z,20.02
2023-09-04T07:00:06.759Z,19.68
2023-09-04T07:02:34.048Z,19.70
2023-09-04T07:05:00.835Z,19.71
2023-09-04T07:07:30.159Z,19.41
2023-09-04T07:09:57.243Z,19.19
2023-09-04T07:12:24.064Z,19.10
2023-09-04T07:14:50.845Z,18.99
2023-09-04T07:17:18.069Z,19.26
2023-09-04T07:19:44.893Z,19.57
2023-09-04T07:22:11.587Z,19.60
2023-09-04T07:24:38.249Z,19.42
2023-09-04T07:27:05.080Z,19.16
2023-09-04T07:29:31.857Z,18.91
2023-09-04T07:31:58.648Z,18.88
2023-09-04T07:34:25.549Z,18.82
2023-09-04T07:36:52.385Z,18.66
2023-09-04T07:39:19.548Z,18.74
2023-09-04T07:41:46.299Z,19.00
2023-09-04T07:44:13.272Z,18.83
2023-09-04T07:46:41.366Z,18.67
2023-09-04T07:49:08.509Z,18.79
2023-09-04T07:51:36.197Z,18.61
2023-09-04T07:54:04.565Z,18.59
2023-09-04T07:56:41.045Z,18.87
2023-09-04T07:59:09.112Z,19.02
2023-09-04T08:01:35.964Z,19.00
2023-09-04T08:04:02.836Z,19.20
2023-09-04T08:06:29.682Z,19.54
2023-09-04T08:08:56.418Z,19.72
2023-09-04T08:11:23.374Z,20.18
2023-09-04T08:13:50.134Z,20.53
2023-09-04T08:16:16.929Z,20.72
2023-09-04T08:18:43.832Z,20.68
2023-09-04T08:21:10.578Z,20.69
2023-09-04T08:23:37.643Z,20.63
2023-09-04T08:26:05.513Z,20.72
2023-09-04T08:28:32.273Z,20.90
2023-09-04T08:30:59.471Z,21.06
2023-09-04T08:33:26.384Z,21.21
2023-09-04T08:35:53.117Z,21.44
2023-09-04T08:38:21.618Z,21.55
2023-09-04T08:40:48.363Z,21.50
2023-09-04T08:43:17.876Z,21.23
2023-09-04T08:45:45.049Z,20.66
2023-09-04T08:48:13.850Z,20.46
2023-09-04T08:50:42.234Z,20.17
2023-09-04T08:53:08.985Z,19.88
2023-09-04T08:55:35.752Z,19.72
2023-09-04T08:58:03.673Z,19.68
2023-09-04T09:00:31.905Z,19.60
2023-09-04T09:03:02.950Z,19.61
2023-09-04T09:05:30.534Z,19.74
2023-09-04T09:07:58.031Z,19.89
2023-09-04T09:10:24.981Z,20.11
2023-09-04T09:12:51.916Z,20.07
2023-09-04T09:15:18.704Z,20.03
2023-09-04T09:17:56.117Z,20.07
2023-09-04T09:20:34.361Z,20.14
2023-09-04T09:23:02.081Z,19.96
2023-09-04T09:25:29.117Z,19.80
2023-09-04T09:28:09.357Z,19.94
2023-09-04T09:30:39.705Z,20.31
2023-09-04T09:33:11.919Z,20.32
2023-09-04T09:35:40.049Z,20.45
2023-09-04T09:38:07.250Z,20.66
2023-09-04T09:40:35.193Z,20.63
2023-09-04T09:43:02.067Z,20.67
2023-09-04T09:45:37.870Z,20.81
2023-09-04T09:48:06.067Z,21.12
2023-09-04T09:50:33.913Z,21.29
2023-09-04T09:53:02.484Z,21.31
2023-09-04T09:55:35.308Z,21.19
2023-09-04T09:58:02.427Z,20.97
2023-09-04T10:00:30.523Z,20.78
2023-09-04T10:02:58.497Z,20.76
2023-09-04T10:05:26.559Z,20.81
2023-09-04T10:07:59.728Z,21.03
2023-09-04T10:10:26.562Z,21.13
2023-09-04T10:13:09.234Z,21.10
2023-09-04T10:15:37.762Z,21.01
2023-09-04T10:18:21.473Z,20.78
2023-09-04T10:20:49.159Z,20.75
2023-09-04T10:23:22.150Z,20.71
2023-09-04T10:25:51.861Z,20.77
2023-09-04T10:28:29.919Z,20.96
2023-09-04T10:31:05.803Z,20.98
2023-09-04T10:33:38.070Z,20.91
2023-09-04T10:36:05.400Z,20.65
2023-09-04T10:38:33.234Z,20.55
2023-09-04T10:41:01.539Z,20.65
2023-09-04T10:43:41.613Z,20.70
2023-09-04T10:46:10.368Z,20.74
2023-09-04T10:48:51.238Z,20.67
2023-09-04T10:51:38.122Z,20.50
2023-09-04T10:54:10.628Z,20.33
2023-09-04T10:57:08.148Z,20.28
2023-09-04T11:00:09.190Z,20.50
2023-09-04T11:02:36.121Z,20.78
2023-09-04T11:05:04.404Z,20.76
2023-09-04T11:07:35.038Z,20.77
2023-09-04T11:10:33.744Z,20.85
2023-09-04T11:13:00.597Z,20.80
2023-09-04T11:15:28.080Z,20.80
2023-09-04T11:17:55.191Z,20.83
2023-09-04T11:20:28.594Z,20.86
2023-09-04T11:22:56.523Z,20.72
2023-09-04T11:25:23.306Z,20.75
2023-09-04T11:27:50.024Z,20.77
2023-09-04T11:30:16.635Z,21.10
2023-09-04T11:32:43.705Z,21.14
2023-09-04T11:35:15.812Z,21.03
2023-09-04T11:37:44.012Z,20.86
2023-09-04T11:40:11.266Z,20.93
2023-09-04T11:42:38.421Z,20.98
2023-09-04T11:45:06.229Z,21.11
2023-09-04T11:47:33.200Z,21.32
2023-09-04T11:50:00.225Z,21.41
2023-09-04T11:52:27.662Z,21.42
2023-09-04T11:54:55.167Z,21.51
2023-09-04T11:57:23.142Z,21.61
2023-09-04T11:59:49.981Z,21.78
2023-09-04T12:02:16.743Z,21.90
2023-09-04T12:04:44.288Z,22.10
2023-09-04T12:07:14.111Z,21.97
2023-09-04T12:09:42.057Z,21.73
2023-09-04T12:12:09.170Z,21.76
2023-09-04T12:14:36.202Z,21.75
2023-09-04T12:17:10.915Z,21.96
2023-09-04T12:19:37.530Z,22.09
2023-09-04T12:22:11.892Z,22.35
2023-09-04T12:24:38.765Z,22.74
2023-09-04T12:27:07.050Z,22.36
2023-09-04T12:29:35.431Z,21.90
2023-09-04T12:32:03.570Z,21.56
2023-09-04T12:34:30.270Z,21.50
2023-09-04T12:36:57.017Z,21.75
2023-09-04T12:39:23.761Z,21.96
2023-09-04T12:41:56.133Z,21.94
2023-09-04T12:44:23.184Z,21.75
2023-09-04T12:46:49.850Z,21.57
2023-09-04T12:49:16.606Z,21.47
2023-09-04T12:51:43.259Z,21.46
2023-09-04T12:54:10.150Z,21.46
2023-09-04T12:56:36.858Z,21.54
2023-09-04T12:59:03.594Z,21.70
2023-09-04T13:01:30.554Z,21.84
2023-09-04T13:03:57.294Z,22.12
2023-09-04T13:06:24.000Z,22.36
2023-09-04T13:08:50.686Z,22.64
2023-09-04T13:11:17.373Z,22.81
2023-09-04T13:13:44.020Z,22.68
2023-09-04T13:16:10.678Z,22.57
2023-09-04T13:18:37.374Z,22.31
2023-09-04T13:21:04.126Z,22.27
2023-09-04T13:23:30.885Z,22.26
2023-09-04T13:25:57.538Z,22.56
2023-09-04T13:28:24.828Z,22.86
2023-09-04T13:30:52.989Z,23.06
2023-09-04T13:33:19.797Z,22.88
2023-09-04T13:35:46.474Z,22.47
2023-09-04T13:38:13.387Z,22.19
2023-09-04T13:40:40.062Z,22.00
2023-09-04T13:43:06.709Z,21.73
2023-09-04T13:45:33.462Z,21.58
2023-09-04T13:48:00.431Z,21.31
2023-09-04T13:50:27.192Z,21.19
2023-09-04T13:52:53.940Z,21.13
2023-09-04T13:55:20.577Z,21.17
2023-09-04T13:57:47.334Z,21.21
2023-09-04T14:00:14.689Z,21.16
2023-09-04T14:02:41.501Z,21.10
2023-09-04T14:05:08.627Z,21.10
2023-09-04T14:07:35.400Z,21.28
2023-09-04T14:10:02.137Z,21.94
2023-09-04T14:12:29.059Z,22.08
2023-09-04T14:14:57.603Z,23.24
2023-09-04T14:17:24.339Z,23.68
2023-09-04T14:19:51.501Z,24.33
2023-09-04T14:22:18.339Z,24.79
2023-09-04T14:24:45.067Z,24.95
2023-09-04T14:27:11.818Z,24.63
2023-09-04T14:29:38.563Z,23.82
2023-09-04T14:32:05.412Z,23.25
2023-09-04T14:34:32.280Z,22.70
2023-09-04T14:39:29.793Z,21.68
2023-09-04T14:41:56.505Z,21.20
2023-09-04T14:44:23.469Z,20.81
2023-09-04T14:46:50.142Z,20.48
2023-09-04T14:49:16.881Z,20.25
2023-09-04T14:51:43.735Z,20.11
2023-09-04T14:54:10.378Z,20.14
2023-09-04T14:56:37.237Z,21.12
2023-09-04T14:59:03.984Z,21.85
2023-09-04T15:01:30.676Z,21.62
2023-09-04T15:03:57.518Z,21.57
2023-09-04T15:06:24.434Z,21.53
2023-09-04T15:08:51.285Z,21.46
2023-09-04T15:11:18.162Z,21.53
2023-09-04T15:13:46.242Z,21.64
2023-09-04T15:16:13.204Z,21.46
2023-09-04T15:18:40.117Z,21.21
2023-09-04T15:21:07.610Z,21.04
2023-09-04T15:23:35.160Z,20.99
2023-09-04T15:26:02.646Z,21.01
2023-09-04T15:28:29.610Z,21.00
2023-09-04T15:30:56.382Z,20.89
2023-09-04T15:33:23.169Z,20.73
2023-09-04T15:35:50.168Z,20.60
2023-09-04T15:38:16.910Z,20.42
2023-09-04T15:40:43.492Z,20.17
2023-09-04T15:43:10.214Z,19.93
2023-09-04T15:45:40.348Z,19.77
2023-09-04T15:48:07.666Z,19.63
2023-09-04T15:50:34.919Z,19.48
2023-09-04T15:53:02.598Z,19.34
2023-09-04T15:55:29.314Z,19.26
2023-09-04T15:57:56.058Z,19.20
2023-09-04T16:00:22.910Z,19.11
2023-09-04T16:02:49.621Z,19.01
2023-09-04T16:05:16.617Z,18.92
2023-09-04T16:07:43.459Z,18.82
2023-09-04T16:10:10.629Z,18.75
2023-09-04T16:12:37.389Z,18.71
2023-09-04T16:15:05.690Z,18.66
2023-09-04T16:17:32.472Z,18.58
2023-09-04T16:19:59.394Z,18.48
2023-09-04T16:22:26.038Z,18.38
2023-09-04T16:24:52.691Z,18.25
2023-09-04T16:27:19.363Z,18.13
2023-09-04T16:29:46.082Z,18.04
2023-09-04T16:32:12.829Z,17.95
2023-09-04T16:34:39.605Z,17.86
2023-09-04T16:37:06.237Z,17.79
2023-09-04T16:39:32.930Z,17.69
2023-09-04T16:41:59.633Z,17.53
2023-09-04T16:44:26.331Z,17.34
2023-09-04T16:46:53.061Z,17.15
2023-09-04T16:49:19.704Z,16.95
2023-09-04T16:51:55.982Z,16.76
2023-09-04T16:54:24.261Z,16.62
2023-09-04T16:56:51.226Z,16.52
2023-09-04T16:59:17.978Z,16.42
2023-09-04T17:01:44.962Z,16.33
2023-09-04T17:04:11.712Z,16.25
2023-09-04T17:06:38.537Z,16.17
2023-09-04T17:09:05.388Z,16.09
2023-09-04T17:11:32.342Z,16.04
2023-09-04T17:13:59.252Z,16.00
2023-09-04T17:16:26.166Z,15.95
2023-09-04T17:18:52.921Z,15.89
2023-09-04T17:21:19.965Z,15.84
2023-09-04T17:23:46.713Z,15.78
2023-09-04T17:26:13.500Z,15.72
2023-09-04T17:28:40.116Z,15.67
2023-09-04T17:31:06.955Z,15.59
2023-09-04T17:33:34.272Z,15.53
2023-09-04T17:36:02.211Z,15.47
2023-09-04T17:38:29.062Z,15.40
2023-09-04T17:40:55.706Z,15.33
2023-09-04T17:43:25.053Z,15.23
2023-09-04T17:45:52.405Z,15.13
2023-09-04T17:48:19.154Z,15.04
2023-09-04T17:50:45.786Z,14.97
2023-09-04T17:53:12.626Z,14.89
2023-09-04T17:55:39.277Z,14.80
2023-09-04T17:58:06.154Z,14.71
2023-09-04T18:00:32.994Z,14.63
2023-09-04T18:02:59.711Z,14.57
2023-09-04T18:05:26.705Z,14.51
2023-09-04T18:07:53.651Z,14.44
2023-09-04T18:10:20.829Z,14.37
2023-09-04T18:12:48.294Z,14.34
2023-09-04T18:15:16.136Z,14.29
2023-09-04T18:17:42.881Z,14.23
2023-09-04T18:20:10.145Z,14.17
2023-09-04T18:22:36.812Z,14.11
2023-09-04T18:25:03.673Z,14.06
2023-09-04T18:27:30.577Z,14.02
2023-09-04T18:29:57.264Z,13.97
2023-09-04T18:32:23.933Z,13.92
2023-09-04T18:34:50.660Z,13.89
2023-09-04T18:37:17.309Z,13.84
2023-09-04T18:39:43.950Z,13.79
2023-09-04T18:42:10.601Z,13.73
2023-09-04T18:44:37.246Z,13.68
2023-09-04T18:47:04.126Z,13.64
2023-09-04T18:49:30.874Z,13.59
2023-09-04T18:51:57.610Z,13.56
2023-09-04T18:54:24.257Z,13.52
2023-09-04T18:56:50.841Z,13.46
2023-09-04T18:59:17.557Z,13.38
2023-09-04T19:01:44.376Z,13.33
2023-09-04T19:04:11.212Z,13.29
2023-09-04T19:06:38.018Z,13.25
2023-09-04T19:09:05.169Z,13.22
2023-09-04T19:11:31.826Z,13.20
2023-09-04T19:13:58.570Z,13.17
2023-09-04T19:16:25.345Z,13.12
2023-09-04T19:18:52.274Z,13.06
2023-09-04T19:21:19.127Z,13.01
2023-09-04T19:23:45.880Z,12.97
2023-09-04T19:26:12.527Z,12.96
2023-09-04T19:28:49.814Z,12.92
2023-09-04T19:31:19.377Z,12.89
2023-09-04T19:33:46.218Z,12.86
2023-09-04T19:36:12.941Z,12.83
2023-09-04T19:38:39.585Z,12.81
2023-09-04T19:41:06.329Z,12.79
2023-09-04T19:43:32.858Z,12.76
2023-09-04T19:45:59.611Z,12.72
2023-09-04T19:48:26.603Z,12.68
2023-09-04T19:50:53.444Z,12.64
2023-09-04T19:53:20.201Z,12.59
2023-09-04T19:55:46.950Z,12.54
2023-09-04T19:58:13.603Z,12.49
2023-09-04T20:00:40.240Z,12.43
2023-09-04T20:03:07.576Z,12.38
2023-09-04T20:05:34.493Z,12.33
2023-09-04T20:08:01.324Z,12.31
2023-09-04T20:10:28.077Z,12.29
2023-09-04T20:12:54.807Z,12.26
2023-09-04T20:15:21.463Z,12.22
2023-09-04T20:17:48.333Z,12.16
2023-09-04T20:20:15.256Z,12.11
2023-09-04T20:22:41.952Z,12.07
2023-09-04T20:25:09.056Z,12.04
2023-09-04T20:27:35.807Z,12.01
2023-09-04T20:30:02.574Z,12.00
2023-09-04T20:32:29.393Z,11.99
2023-09-04T20:34:56.285Z,11.93
2023-09-04T20:37:23.085Z,11.88
2023-09-04T20:39:49.957Z,11.84
2023-09-04T20:42:16.809Z,11.81
2023-09-04T20:44:43.571Z,11.78
2023-09-04T20:47:10.225Z,11.76
2023-09-04T20:49:36.873Z,11.76
2023-09-04T20:52:03.626Z,11.76
2023-09-04T20:54:30.266Z,11.73
2023-09-04T20:56:57.023Z,11.70
2023-09-04T20:59:23.907Z,11.66
2023-09-04T21:01:50.637Z,11.62
2023-09-04T21:04:17.475Z,11.60
2023-09-04T21:06:44.133Z,11.61
2023-09-04T21:09:10.773Z,11.60
2023-09-04T21:11:37.431Z,11.56
2023-09-04T21:14:04.585Z,11.52
2023-09-04T21:16:31.246Z,11.49
2023-09-04T21:18:57.877Z,11.46
2023-09-04T21:21:24.554Z,11.43
2023-09-04T21:23:51.286Z,11.40
2023-09-04T21:26:17.950Z,11.38
2023-09-04T21:28:44.680Z,11.35
2023-09-04T21:31:11.467Z,11.33
2023-09-04T21:33:38.195Z,11.31
2023-09-04T21:36:05.377Z,11.28
2023-09-04T21:38:32.102Z,11.24
2023-09-04T21:40:58.933Z,11.19
2023-09-04T21:43:25.805Z,11.13
2023-09-04T21:45:52.871Z,11.08
2023-09-04T21:48:19.922Z,11.05
2023-09-04T21:50:46.732Z,11.04
2023-09-04T21:53:13.827Z,11.02
2023-09-04T21:55:40.471Z,11.03
2023-09-04T21:58:07.125Z,11.06
2023-09-04T22:00:33.966Z,11.09
2023-09-04T22:03:00.921Z,11.09
2023-09-04T22:05:27.676Z,11.08
2023-09-04T22:07:54.335Z,11.06
2023-09-04T22:10:21.477Z,11.02
2023-09-04T22:12:48.126Z,11.00
2023-09-04T22:15:14.990Z,11.00
2023-09-04T22:17:47.218Z,10.97
2023-09-04T22:20:14.011Z,10.96
2023-09-04T22:22:40.961Z,10.97
2023-09-04T22:25:08.384Z,10.96
2023-09-04T22:27:35.177Z,10.95
2023-09-04T22:30:02.537Z,10.93
2023-09-04T22:32:29.302Z,10.91
2023-09-04T22:34:56.946Z,10.90
2023-09-04T22:37:23.590Z,10.89
2023-09-04T22:39:50.244Z,10.87
2023-09-04T22:42:16.985Z,10.85
2023-09-04T22:44:43.636Z,10.84
2023-09-04T22:47:10.305Z,10.83
2023-09-04T22:49:36.962Z,10.83
2023-09-04T22:52:03.906Z,10.83
2023-09-04T22:54:30.560Z,10.83
2023-09-04T22:56:57.306Z,10.84
2023-09-04T22:59:27.169Z,10.81
2023-09-04T23:01:53.912Z,10.80
2023-09-04T23:04:20.802Z,10.77
2023-09-04T23:06:47.585Z,10.74
2023-09-04T23:09:14.537Z,10.70
2023-09-04T23:11:41.269Z,10.67
2023-09-04T23:14:07.942Z,10.68
2023-09-04T23:16:34.711Z,10.70
2023-09-04T23:19:01.438Z,10.69
2023-09-04T23:21:28.187Z,10.64
2023-09-04T23:23:54.867Z,10.58
2023-09-04T23:26:21.582Z,10.54
2023-09-04T23:28:48.418Z,10.49
2023-09-04T23:31:16.348Z,10.45
2023-09-04T23:33:43.174Z,10.42
2023-09-04T23:36:10.120Z,10.38
2023-09-04T23:38:36.774Z,10.38
2023-09-04T23:41:03.418Z,10.36
2023-09-04T23:43:30.035Z,10.33
2023-09-04T23:45:56.747Z,10.33
2023-09-04T23:48:23.483Z,10.31
2023-09-04T23:50:54.347Z,10.28
2023-09-04T23:53:21.026Z,10.25
2023-09-04T23:55:48.153Z,10.23
2023-09-04T23:58:15.000Z,10.21
